createdAt,value
2022-07-29T00:00:02.104Z,1.23
2022-07-29T00:02:29.175Z,1.60
2022-07-29T00:04:56.145Z,1.57
2022-07-29T00:07:22.718Z,1.20
2022-07-29T00:09:52.084Z,1.50
2022-07-29T00:12:26.541Z,1.57
2022-07-29T00:14:54.979Z,1.60
2022-07-29T00:17:21.505Z,1.60
2022-07-29T00:19:47.919Z,1.40
2022-07-29T00:22:14.825Z,1.33
2022-07-29T00:24:41.308Z,1.43
2022-07-29T00:27:07.721Z,1.57
2022-07-29T00:29:35.075Z,1.43
2022-07-29T00:32:02.851Z,1.40
2022-07-29T00:34:29.325Z,1.67
2022-07-29T00:36:55.868Z,1.40
2022-07-29T00:39:22.529Z,1.50
2022-07-29T00:41:49.101Z,1.30
2022-07-29T00:44:15.831Z,1.47
2022-07-29T00:46:42.800Z,1.63
2022-07-29T00:49:09.451Z,1.50
2022-07-29T00:51:38.154Z,1.40
2022-07-29T00:54:05.650Z,1.50
2022-07-29T00:56:33.366Z,1.80
2022-07-29T00:59:00.756Z,1.70
2022-07-29T01:01:27.894Z,1.87
2022-07-29T01:03:54.456Z,1.50
2022-07-29T01:06:21.327Z,1.50
2022-07-29T01:08:49.201Z,1.40
2022-07-29T01:11:17.082Z,2.00
2022-07-29T01:13:48.083Z,1.70
2022-07-29T01:16:22.093Z,1.60
2022-07-29T01:18:52.522Z,1.70
2022-07-29T01:21:37.512Z,1.50
2022-07-29T01:24:34.442Z,1.60
2022-07-29T01:27:16.337Z,1.57
2022-07-29T01:29:53.314Z,1.67
2022-07-29T01:32:28.825Z,1.83
2022-07-29T01:35:04.371Z,1.60
2022-07-29T01:38:02.352Z,1.70
2022-07-29T01:40:50.594Z,1.50
2022-07-29T01:43:33.689Z,1.80
2022-07-29T01:46:05.310Z,2.00
2022-07-29T01:48:37.866Z,1.70
2022-07-29T01:51:30.225Z,1.77
2022-07-29T01:54:05.401Z,1.90
2022-07-29T01:56:34.189Z,1.93
2022-07-29T01:59:02.697Z,1.60
2022-07-29T02:01:33.485Z,1.97
2022-07-29T02:04:04.666Z,2.10
2022-07-29T02:06:34.372Z,2.30
2022-07-29T02:09:03.146Z,2.33
2022-07-29T02:11:33.609Z,1.83
2022-07-29T02:14:02.705Z,1.80
2022-07-29T02:16:33.331Z,2.00
2022-07-29T02:19:02.297Z,1.83
2022-07-29T02:21:30.729Z,2.03
2022-07-29T02:24:00.350Z,2.23
2022-07-29T02:26:27.824Z,1.80
2022-07-29T02:28:57.089Z,1.50
2022-07-29T02:31:26.273Z,1.90
2022-07-29T02:33:54.572Z,1.90
2022-07-29T02:36:24.393Z,1.77
2022-07-29T02:38:51.259Z,1.70
2022-07-29T02:41:19.518Z,1.77
2022-07-29T02:43:49.469Z,1.80
2022-07-29T02:46:29.003Z,2.13
2022-07-29T02:49:17.858Z,1.80
2022-07-29T02:51:48.104Z,2.00
2022-07-29T02:54:39.724Z,2.33
2022-07-29T02:57:13.713Z,2.20
2022-07-29T02:59:44.287Z,2.47
2022-07-29T03:02:12.083Z,1.70
2022-07-29T03:04:42.606Z,2.23
2022-07-29T03:07:11.264Z,2.20
2022-07-29T03:09:39.013Z,2.00
2022-07-29T03:12:06.193Z,2.30
2022-07-29T03:14:33.208Z,2.03
2022-07-29T03:17:00.559Z,2.00
2022-07-29T03:19:27.845Z,2.07
2022-07-29T03:21:58.105Z,2.20
2022-07-29T03:24:36.299Z,1.83
2022-07-29T03:27:04.299Z,2.50
2022-07-29T03:29:33.700Z,2.20
2022-07-29T03:32:02.738Z,2.20
2022-07-29T03:34:30.033Z,2.00
2022-07-29T03:36:56.489Z,1.80
2022-07-29T03:39:32.364Z,2.60
2022-07-29T03:42:01.955Z,1.90
2022-07-29T03:44:29.392Z,2.00
2022-07-29T03:46:58.605Z,2.47
2022-07-29T03:49:27.529Z,1.70
2022-07-29T03:51:54.261Z,1.70
2022-07-29T03:54:21.571Z,1.80
2022-07-29T03:56:50.982Z,1.80
2022-07-29T03:59:18.985Z,1.87
2022-07-29T04:01:46.140Z,1.90
2022-07-29T04:04:13.007Z,1.60
2022-07-29T04:06:44.230Z,1.67
2022-07-29T04:09:11.601Z,1.60
2022-07-29T04:11:59.670Z,1.80
2022-07-29T04:14:27.093Z,1.63
2022-07-29T04:16:53.547Z,1.83
2022-07-29T04:19:19.946Z,1.90
2022-07-29T04:21:46.405Z,2.20
2022-07-29T04:24:13.131Z,1.83
2022-07-29T04:26:39.843Z,1.67
2022-07-29T04:29:06.262Z,1.60
2022-07-29T04:31:32.799Z,1.83
2022-07-29T04:33:59.271Z,1.50
2022-07-29T04:36:29.041Z,1.73
2022-07-29T04:38:56.405Z,1.90
2022-07-29T04:41:22.818Z,1.90
2022-07-29T04:43:49.907Z,1.80
2022-07-29T04:46:16.779Z,1.80
2022-07-29T04:48:43.360Z,1.83
2022-07-29T04:51:09.811Z,1.97
2022-07-29T04:53:36.242Z,2.03
2022-07-29T04:56:03.234Z,2.10
2022-07-29T04:58:29.694Z,2.10
2022-07-29T05:00:56.313Z,1.90
2022-07-29T05:03:22.727Z,1.70
2022-07-29T05:05:49.375Z,1.63
2022-07-29T05:08:15.786Z,1.87
2022-07-29T05:10:42.194Z,1.60
2022-07-29T05:13:09.050Z,1.70
2022-07-29T05:15:36.323Z,1.90
2022-07-29T05:18:03.609Z,1.93
2022-07-29T05:20:30.720Z,1.70
2022-07-29T05:22:58.190Z,1.80
2022-07-29T05:25:40.850Z,1.70
2022-07-29T05:28:10.577Z,1.60
2022-07-29T05:30:37.091Z,1.60
2022-07-29T05:33:03.530Z,2.20
2022-07-29T05:35:30.160Z,1.70
2022-07-29T05:37:56.650Z,1.57
2022-07-29T05:40:23.106Z,1.70
2022-07-29T05:42:49.568Z,1.70
2022-07-29T05:45:15.974Z,1.70
2022-07-29T05:47:42.441Z,1.50
2022-07-29T05:50:09.362Z,1.50
2022-07-29T05:52:35.765Z,1.60
2022-07-29T05:55:02.238Z,1.20
2022-07-29T05:57:28.678Z,1.60
2022-07-29T05:59:55.074Z,1.67
2022-07-29T06:02:21.477Z,1.80
2022-07-29T06:04:48.088Z,1.50
2022-07-29T06:07:14.543Z,2.30
2022-07-29T06:09:41.031Z,1.93
2022-07-29T06:12:07.553Z,1.47
2022-07-29T06:14:34.013Z,1.60
2022-07-29T06:17:00.470Z,1.40
2022-07-29T06:19:26.894Z,1.70
2022-07-29T06:21:53.295Z,1.47
2022-07-29T06:24:20.099Z,1.67
2022-07-29T06:26:46.812Z,1.70
2022-07-29T06:29:13.241Z,1.60
2022-07-29T06:31:40.024Z,2.07
2022-07-29T06:34:06.698Z,1.40
2022-07-29T06:36:36.573Z,1.30
2022-07-29T06:39:07.973Z,1.77
2022-07-29T06:41:35.232Z,1.40
2022-07-29T06:44:01.858Z,1.30
2022-07-29T06:46:28.660Z,1.60
2022-07-29T06:48:55.317Z,2.63
2022-07-29T06:51:23.940Z,1.77
2022-07-29T06:53:59.544Z,1.60
2022-07-29T06:56:29.133Z,1.57
2022-07-29T06:58:55.782Z,1.50
2022-07-29T07:01:22.849Z,1.73
2022-07-29T07:03:49.414Z,1.70
2022-07-29T07:06:15.953Z,1.73
2022-07-29T07:08:42.385Z,1.53
2022-07-29T07:11:09.555Z,1.90
2022-07-29T07:13:36.783Z,1.60
2022-07-29T07:16:04.367Z,1.60
2022-07-29T07:18:31.191Z,1.67
2022-07-29T07:20:58.542Z,1.60
2022-07-29T07:23:25.291Z,1.70
2022-07-29T07:25:51.831Z,2.10
2022-07-29T07:28:18.310Z,2.30
2022-07-29T07:30:51.240Z,1.70
2022-07-29T07:33:17.743Z,1.70
2022-07-29T07:35:44.284Z,1.70
2022-07-29T07:38:10.802Z,1.87
2022-07-29T07:40:37.299Z,1.80
2022-07-29T07:43:03.932Z,2.00
2022-07-29T07:45:30.680Z,1.83
2022-07-29T07:47:57.131Z,1.83
2022-07-29T07:50:23.698Z,1.60
2022-07-29T07:52:55.481Z,1.90
2022-07-29T07:55:22.129Z,2.00
2022-07-29T07:57:48.970Z,1.97
2022-07-29T08:00:16.962Z,2.10
2022-07-29T08:02:43.739Z,2.40
2022-07-29T08:05:12.667Z,2.77
2022-07-29T08:07:39.693Z,2.20
2022-07-29T08:10:06.467Z,1.90
2022-07-29T08:12:32.888Z,2.10
2022-07-29T08:14:59.707Z,2.00
2022-07-29T08:17:26.227Z,1.87
2022-07-29T08:19:52.805Z,2.00
2022-07-29T08:22:19.358Z,1.93
2022-07-29T08:24:45.807Z,2.10
2022-07-29T08:27:33.471Z,1.67
2022-07-29T08:29:58.979Z,1.77
2022-07-29T08:32:50.883Z,1.83
2022-07-29T08:35:12.052Z,2.07
2022-07-29T08:37:38.556Z,1.60
2022-07-29T08:40:05.550Z,1.90
2022-07-29T08:42:31.958Z,2.10
2022-07-29T08:44:59.530Z,1.97
2022-07-29T08:47:28.554Z,2.03
2022-07-29T08:49:54.985Z,2.20
2022-07-29T08:52:22.646Z,1.90
2022-07-29T08:54:49.684Z,2.00
2022-07-29T08:57:17.798Z,2.03
2022-07-29T08:59:47.734Z,1.70
2022-07-29T09:02:21.283Z,1.77
2022-07-29T09:04:48.218Z,2.10
2022-07-29T09:07:19.554Z,1.83
2022-07-29T09:09:46.406Z,1.90
2022-07-29T09:12:13.801Z,2.00
2022-07-29T09:14:56.107Z,2.00
2022-07-29T09:17:48.506Z,2.50
2022-07-29T09:20:21.243Z,1.77
2022-07-29T09:22:47.989Z,1.90
2022-07-29T09:25:14.500Z,2.37
2022-07-29T09:27:40.947Z,2.40
2022-07-29T09:30:10.126Z,1.80
2022-07-29T09:32:56.509Z,2.00
2022-07-29T09:35:25.723Z,2.10
2022-07-29T09:37:52.798Z,1.80
2022-07-29T09:40:21.863Z,2.27
2022-07-29T09:42:49.090Z,2.10
2022-07-29T09:45:29.094Z,2.37
2022-07-29T09:47:55.517Z,1.70
2022-07-29T09:50:22.691Z,2.03
2022-07-29T09:52:51.476Z,2.67
2022-07-29T09:55:19.855Z,2.30
2022-07-29T09:57:47.710Z,2.47
2022-07-29T10:00:18.603Z,2.27
2022-07-29T10:02:47.089Z,2.07
2022-07-29T10:05:36.024Z,2.07
2022-07-29T10:08:03.560Z,1.97
2022-07-29T10:10:35.482Z,2.17
2022-07-29T10:13:11.025Z,2.00
2022-07-29T10:15:43.117Z,2.43
2022-07-29T10:18:10.409Z,1.97
2022-07-29T10:20:37.642Z,2.27
2022-07-29T10:23:04.793Z,1.93
2022-07-29T10:25:31.723Z,2.00
2022-07-29T10:27:58.577Z,1.90
2022-07-29T10:30:26.293Z,2.40
2022-07-29T10:33:16.833Z,1.90
2022-07-29T10:36:02.176Z,2.00
2022-07-29T10:38:38.546Z,2.17
2022-07-29T10:41:08.708Z,2.20
2022-07-29T10:43:38.741Z,1.90
2022-07-29T10:49:18.648Z,2.37
2022-07-29T10:51:51.103Z,2.20
2022-07-29T10:54:42.459Z,2.10
2022-07-29T10:57:14.326Z,2.27
2022-07-29T10:59:42.001Z,2.30
2022-07-29T11:02:41.975Z,2.47
2022-07-29T11:05:14.626Z,2.77
2022-07-29T11:08:19.945Z,2.70
2022-07-29T11:10:49.358Z,2.33
2022-07-29T11:13:53.337Z,2.73
2022-07-29T11:16:22.463Z,2.90
2022-07-29T11:19:13.850Z,2.43
2022-07-29T11:21:54.169Z,3.03
2022-07-29T11:24:30.332Z,2.47
2022-07-29T11:27:18.245Z,2.70
2022-07-29T11:29:56.646Z,2.47
2022-07-29T11:32:25.436Z,2.50
2022-07-29T11:35:19.392Z,2.30
2022-07-29T11:38:29.015Z,2.70
2022-07-29T11:41:23.684Z,2.50
2022-07-29T11:44:00.658Z,2.80
2022-07-29T11:46:46.539Z,2.60
2022-07-29T11:49:14.086Z,2.50
2022-07-29T11:51:48.370Z,2.27
2022-07-29T11:54:27.291Z,2.63
2022-07-29T11:56:54.381Z,2.67
2022-07-29T11:59:21.917Z,2.90
2022-07-29T12:04:56.687Z,2.97
2022-07-29T12:07:03.218Z,2.47
2022-07-29T12:07:34.844Z,3.00
2022-07-29T12:10:02.529Z,2.87
2022-07-29T12:12:29.296Z,2.63
2022-07-29T12:14:56.070Z,2.90
2022-07-29T12:17:31.225Z,2.70
2022-07-29T12:20:00.069Z,2.77
2022-07-29T12:22:28.166Z,2.67
2022-07-29T12:25:02.218Z,2.70
2022-07-29T12:27:43.456Z,2.70
2022-07-29T12:30:12.849Z,2.63
2022-07-29T12:32:47.170Z,2.70
2022-07-29T12:35:16.258Z,2.83
2022-07-29T12:37:45.544Z,2.83
2022-07-29T12:40:14.341Z,2.50
2022-07-29T12:42:40.821Z,2.80
2022-07-29T12:45:07.769Z,3.03
2022-07-29T12:47:51.508Z,2.50
2022-07-29T12:50:17.929Z,3.07
2022-07-29T12:52:45.608Z,2.77
2022-07-29T12:55:12.952Z,2.83
2022-07-29T12:57:47.347Z,3.00
2022-07-29T13:00:15.273Z,2.73
2022-07-29T13:02:42.995Z,3.00
2022-07-29T13:05:10.856Z,2.70
2022-07-29T13:07:54.139Z,2.90
2022-07-29T13:10:24.654Z,2.47
2022-07-29T13:13:03.365Z,2.67
2022-07-29T13:15:30.331Z,2.87
2022-07-29T13:17:56.729Z,3.00
2022-07-29T13:20:29.350Z,3.20
2022-07-29T13:22:57.530Z,3.30
2022-07-29T13:25:27.770Z,2.80
2022-07-29T13:27:54.341Z,2.97
2022-07-29T13:30:21.758Z,2.73
2022-07-29T13:32:48.359Z,3.40
2022-07-29T13:35:14.897Z,3.30
2022-07-29T13:37:41.491Z,3.00
2022-07-29T13:40:09.362Z,3.13
2022-07-29T13:42:35.900Z,2.60
2022-07-29T13:45:02.446Z,2.80
2022-07-29T13:47:32.132Z,2.93
2022-07-29T13:50:00.397Z,3.20
2022-07-29T13:52:26.863Z,3.20
2022-07-29T13:54:53.368Z,3.20
2022-07-29T13:57:20.146Z,3.60
2022-07-29T13:59:50.535Z,3.10
2022-07-29T14:02:19.906Z,3.47
2022-07-29T14:04:46.577Z,2.50
2022-07-29T14:07:16.396Z,3.13
2022-07-29T14:09:43.206Z,3.20
2022-07-29T14:12:09.952Z,3.33
2022-07-29T14:14:36.707Z,3.00
2022-07-29T14:17:03.782Z,4.03
2022-07-29T14:19:30.274Z,3.80
2022-07-29T14:21:56.842Z,3.67
2022-07-29T14:24:24.589Z,3.47
2022-07-29T14:26:52.325Z,3.30
2022-07-29T14:29:18.758Z,3.53
2022-07-29T14:31:45.193Z,2.90
2022-07-29T14:34:11.635Z,2.87
2022-07-29T14:36:38.026Z,3.40
2022-07-29T14:39:04.455Z,3.30
2022-07-29T14:41:30.960Z,3.27
2022-07-29T14:43:57.360Z,3.60
2022-07-29T14:46:23.957Z,3.27
2022-07-29T14:48:50.480Z,3.10
2022-07-29T14:51:16.872Z,3.77
2022-07-29T14:53:43.276Z,3.90
2022-07-29T14:56:35.534Z,3.60
2022-07-29T14:58:58.105Z,3.80
2022-07-29T15:01:24.984Z,4.13
2022-07-29T15:03:54.751Z,3.90
2022-07-29T15:06:23.226Z,3.30
2022-07-29T15:08:49.677Z,3.20
2022-07-29T15:11:16.066Z,3.27
2022-07-29T15:13:42.481Z,3.53
2022-07-29T15:16:08.998Z,3.30
2022-07-29T15:18:35.736Z,3.50
2022-07-29T15:21:03.383Z,3.47
2022-07-29T15:23:29.834Z,3.60
2022-07-29T15:25:56.230Z,3.60
2022-07-29T15:28:22.634Z,3.30
2022-07-29T15:30:49.166Z,3.10
2022-07-29T15:33:15.605Z,3.47
2022-07-29T15:35:41.994Z,3.70
2022-07-29T15:38:09.154Z,3.17
2022-07-29T15:40:37.946Z,3.47
2022-07-29T15:43:05.405Z,4.03
2022-07-29T15:45:40.209Z,3.80
2022-07-29T15:48:08.447Z,3.47
2022-07-29T15:50:35.483Z,2.83
2022-07-29T15:53:02.079Z,3.10
2022-07-29T15:55:28.548Z,3.10
2022-07-29T15:57:59.959Z,3.50
2022-07-29T16:00:26.930Z,3.63
2022-07-29T16:02:53.330Z,3.20
2022-07-29T16:05:19.786Z,3.17
2022-07-29T16:07:46.379Z,2.83
2022-07-29T16:10:12.781Z,3.20
2022-07-29T16:12:39.237Z,3.03
2022-07-29T16:15:09.670Z,3.00
2022-07-29T16:17:36.661Z,3.27
2022-07-29T16:20:03.878Z,3.23
2022-07-29T16:22:30.378Z,3.10
2022-07-29T16:24:56.777Z,3.27
2022-07-29T16:27:23.209Z,3.10
2022-07-29T16:29:49.633Z,3.00
2022-07-29T16:32:16.039Z,3.40
2022-07-29T16:34:48.782Z,3.23
2022-07-29T16:37:15.217Z,3.70
2022-07-29T16:39:42.709Z,2.67
2022-07-29T16:42:09.953Z,2.90
2022-07-29T16:44:38.037Z,3.27
2022-07-29T16:47:04.558Z,3.77
2022-07-29T16:49:31.678Z,3.03
2022-07-29T16:51:58.197Z,3.47
2022-07-29T16:54:25.857Z,3.07
2022-07-29T16:56:52.281Z,3.20
2022-07-29T16:59:18.720Z,3.20
2022-07-29T17:01:45.155Z,2.80
2022-07-29T17:04:11.579Z,3.27
2022-07-29T17:06:41.369Z,3.30
2022-07-29T17:09:09.616Z,3.10
2022-07-29T17:11:53.482Z,2.87
2022-07-29T17:14:28.604Z,3.37
2022-07-29T17:17:01.177Z,2.90
2022-07-29T17:19:30.301Z,2.67
2022-07-29T17:22:04.756Z,3.10
2022-07-29T17:24:35.753Z,2.93
2022-07-29T17:27:02.156Z,2.97
2022-07-29T17:29:28.661Z,3.33
2022-07-29T17:31:55.417Z,2.90
2022-07-29T17:34:21.819Z,3.40
2022-07-29T17:36:48.250Z,3.47
2022-07-29T17:39:14.757Z,3.17
2022-07-29T17:41:41.189Z,3.70
2022-07-29T17:44:08.059Z,2.97
2022-07-29T17:46:34.579Z,3.60
2022-07-29T17:49:01.029Z,3.30
2022-07-29T17:51:27.509Z,3.10
2022-07-29T17:53:54.090Z,3.50
2022-07-29T17:56:21.151Z,3.80
2022-07-29T17:58:47.730Z,3.20
2022-07-29T18:01:15.376Z,3.57
2022-07-29T18:03:42.520Z,3.53
2022-07-29T18:06:08.988Z,3.87
2022-07-29T18:08:35.507Z,3.80
2022-07-29T18:11:02.290Z,4.23
2022-07-29T18:13:28.799Z,3.87
2022-07-29T18:15:59.972Z,3.70
2022-07-29T18:18:26.881Z,3.77
2022-07-29T18:20:53.368Z,3.97
2022-07-29T18:23:19.867Z,3.57
2022-07-29T18:25:46.281Z,3.60
2022-07-29T18:28:12.732Z,3.50
2022-07-29T18:30:39.202Z,3.37
2022-07-29T18:33:20.682Z,4.10
2022-07-29T18:35:49.964Z,3.67
2022-07-29T18:38:17.072Z,3.90
2022-07-29T18:40:43.856Z,4.40
2022-07-29T18:43:10.382Z,3.90
2022-07-29T18:45:36.905Z,4.67
2022-07-29T18:48:06.589Z,4.87
2022-07-29T18:50:33.070Z,4.60
2022-07-29T18:52:59.550Z,4.60
2022-07-29T18:55:26.140Z,4.53
2022-07-29T18:57:54.919Z,3.93
2022-07-29T19:00:23.688Z,5.07
2022-07-29T19:02:50.274Z,4.03
2022-07-29T19:05:16.839Z,4.37
2022-07-29T19:07:43.355Z,4.17
2022-07-29T19:10:10.195Z,4.00
2022-07-29T19:12:37.241Z,4.40
2022-07-29T19:15:04.021Z,4.37
2022-07-29T19:17:30.530Z,4.23
2022-07-29T19:19:56.924Z,4.33
2022-07-29T19:22:23.598Z,4.60
2022-07-29T19:24:50.791Z,4.90
2022-07-29T19:27:17.345Z,4.90
2022-07-29T19:29:44.189Z,4.47
2022-07-29T19:32:10.808Z,4.40
2022-07-29T19:34:37.283Z,4.57
2022-07-29T19:37:03.883Z,4.20
2022-07-29T19:39:31.751Z,3.77
2022-07-29T19:42:03.520Z,4.20
2022-07-29T19:44:30.170Z,4.10
2022-07-29T19:46:56.985Z,4.20
2022-07-29T19:49:23.799Z,4.65
2022-07-29T19:51:50.461Z,4.22
2022-07-29T19:54:19.918Z,4.10
2022-07-29T19:56:46.312Z,4.70
2022-07-29T19:59:12.846Z,4.72
2022-07-29T20:01:39.546Z,4.90
2022-07-29T20:04:06.058Z,4.30
2022-07-29T20:06:32.680Z,4.80
2022-07-29T20:08:59.245Z,4.47
2022-07-29T20:11:25.852Z,4.83
2022-07-29T20:13:52.256Z,4.67
2022-07-29T20:16:18.920Z,4.73
2022-07-29T20:18:45.425Z,4.93
2022-07-29T20:21:11.898Z,4.73
2022-07-29T20:23:38.321Z,4.70
2022-07-29T20:26:09.262Z,4.93
2022-07-29T20:28:36.212Z,5.03
2022-07-29T20:31:02.810Z,5.00
2022-07-29T20:33:29.288Z,4.43
2022-07-29T20:35:55.725Z,4.70
2022-07-29T20:38:22.273Z,4.80
2022-07-29T20:40:48.750Z,4.93
2022-07-29T20:43:15.257Z,4.83
2022-07-29T20:45:41.750Z,5.10
2022-07-29T20:48:08.443Z,4.90
2022-07-29T20:50:35.283Z,5.55
2022-07-29T20:53:01.783Z,4.43
2022-07-29T20:55:28.213Z,5.07
2022-07-29T20:57:54.629Z,4.60
2022-07-29T21:00:21.159Z,4.60
2022-07-29T21:02:47.641Z,4.43
2022-07-29T21:05:14.354Z,5.68
2022-07-29T21:07:40.751Z,4.30
2022-07-29T21:10:07.633Z,5.10
2022-07-29T21:12:34.152Z,5.23
2022-07-29T21:15:00.595Z,4.43
2022-07-29T21:17:27.047Z,5.07
2022-07-29T21:19:53.619Z,4.90
2022-07-29T21:22:20.859Z,4.70
2022-07-29T21:24:47.564Z,4.60
2022-07-29T21:27:20.813Z,4.73
2022-07-29T21:29:47.933Z,4.70
2022-07-29T21:32:14.510Z,4.93
2022-07-29T21:34:55.838Z,5.47
2022-07-29T21:37:22.243Z,5.17
2022-07-29T21:39:48.676Z,5.23
2022-07-29T21:42:15.133Z,5.67
2022-07-29T21:44:41.539Z,5.97
2022-07-29T21:47:09.330Z,6.37
2022-07-29T21:49:35.745Z,6.57
2022-07-29T21:52:04.141Z,6.10
2022-07-29T21:54:31.343Z,6.70
2022-07-29T21:56:57.859Z,6.27
2022-07-29T21:59:25.099Z,6.40
2022-07-29T22:01:51.844Z,6.13
2022-07-29T22:04:18.431Z,5.60
2022-07-29T22:06:44.877Z,5.53
2022-07-29T22:09:11.410Z,5.40
2022-07-29T22:11:37.882Z,5.20
2022-07-29T22:14:05.187Z,5.90
2022-07-29T22:16:31.673Z,5.00
2022-07-29T22:18:58.142Z,5.03
2022-07-29T22:21:24.551Z,5.77
2022-07-29T22:23:50.955Z,5.13
2022-07-29T22:26:17.402Z,5.30
2022-07-29T22:28:43.797Z,5.80
2022-07-29T22:31:10.279Z,5.03
2022-07-29T22:33:36.767Z,5.27
2022-07-29T22:36:03.316Z,5.40
2022-07-29T22:38:30.038Z,5.40
2022-07-29T22:40:58.757Z,5.80
2022-07-29T22:43:27.051Z,5.77
2022-07-29T22:45:53.519Z,5.90
2022-07-29T22:48:19.990Z,5.93
2022-07-29T22:50:46.428Z,6.33
2022-07-29T22:53:12.883Z,7.03
2022-07-29T22:55:39.394Z,6.93
2022-07-29T22:58:05.849Z,7.33
2022-07-29T23:00:32.509Z,7.57
2022-07-29T23:02:58.993Z,7.23
2022-07-29T23:05:25.508Z,7.10
2022-07-29T23:07:52.106Z,8.33
2022-07-29T23:10:18.527Z,7.07
2022-07-29T23:12:44.972Z,7.07
2022-07-29T23:15:11.589Z,7.40
2022-07-29T23:17:38.041Z,7.43
2022-07-29T23:20:07.076Z,7.73
2022-07-29T23:22:33.979Z,8.00
2022-07-29T23:25:00.401Z,7.80
2022-07-29T23:27:26.847Z,8.83
2022-07-29T23:29:53.372Z,8.37
2022-07-29T23:32:19.839Z,7.67
2022-07-29T23:34:46.276Z,10.43
2022-07-29T23:37:12.674Z,7.20
2022-07-29T23:39:39.120Z,7.80
2022-07-29T23:42:05.621Z,7.37
2022-07-29T23:44:32.073Z,7.63
2022-07-29T23:46:58.814Z,8.07
2022-07-29T23:49:25.541Z,6.90
2022-07-29T23:51:51.977Z,7.90
2022-07-29T23:54:18.400Z,7.97
2022-07-29T23:56:44.865Z,8.60
2022-07-29T23:59:13.009Z,7.60
